Time;durP1;ratioP1;P1;durP2;ratioP2;P2;SDS_P1;SDS_P2;PMS_P1;PMS_P2;Temp;Humidity;BMP_temperature;BMP_pressure;BME280_temperature;BME280_humidity;BME280_pressure;Samples;Min_cycle;Max_cycle;Signal;HPM_P1;HPM_P2
2021/12/15 00:01:32;;;;;;;70.38;33.45;;;9.70;99.90;;;;;;5014652;28;20053;-70
2021/12/15 00:03:58;;;;;;;71.07;32.40;;;9.80;99.90;;;;;;5015079;28;20045;-69
2021/12/15 00:06:24;;;;;;;66.97;32.58;;;9.70;99.90;;;;;;5019182;28;20049;-69
2021/12/15 00:08:53;;;;;;;69.95;33.00;;;9.70;99.90;;;;;;5020756;28;20102;-70
2021/12/15 00:11:21;;;;;;;65.95;31.98;;;9.70;99.90;;;;;;5039193;28;20052;-70
2021/12/15 00:13:48;;;;;;;67.05;32.40;;;9.70;99.90;;;;;;5038842;28;20163;-68
2021/12/15 00:16:15;;;;;;;63.35;30.65;;;9.80;99.90;;;;;;5037955;28;20064;-68
2021/12/15 00:18:44;;;;;;;65.10;31.38;;;9.80;99.90;;;;;;5037875;28;20541;-69
2021/12/15 00:21:12;;;;;;;72.13;33.00;;;10.00;99.90;;;;;;5037260;28;20048;-70
2021/12/15 00:23:39;;;;;;;65.95;31.10;;;9.80;99.90;;;;;;5026428;28;20064;-70
2021/12/15 00:26:05;;;;;;;68.90;31.98;;;9.80;99.90;;;;;;5002476;28;20096;-70
2021/12/15 00:28:31;;;;;;;63.47;31.55;;;9.80;99.90;;;;;;5035775;28;20053;-70
2021/12/15 00:30:57;;;;;;;65.50;31.15;;;9.80;99.90;;;;;;5069812;28;20103;-70
2021/12/15 00:33:23;;;;;;;61.75;30.65;;;9.50;99.90;;;;;;5049820;28;20065;-71
2021/12/15 00:35:49;;;;;;;63.05;31.60;;;9.80;99.90;;;;;;5038005;28;20049;-69
2021/12/15 00:38:14;;;;;;;67.53;31.73;;;9.80;99.90;;;;;;5038035;28;20045;-71
2021/12/15 00:40:40;;;;;;;64.13;31.55;;;9.80;99.90;;;;;;5038283;28;20063;-71
2021/12/15 00:43:06;;;;;;;70.00;31.33;;;9.70;99.90;;;;;;5038379;28;20056;-68
2021/12/15 00:45:32;;;;;;;65.20;30.63;;;9.80;99.90;;;;;;5055388;28;20128;-69
2021/12/15 00:47:58;;;;;;;69.22;31.15;;;9.90;99.90;;;;;;5037598;28;20060;-70
2021/12/15 00:50:28;;;;;;;66.72;31.02;;;9.80;99.90;;;;;;5038499;28;20053;-71
2021/12/15 00:52:53;;;;;;;65.80;30.77;;;9.80;99.90;;;;;;5037740;28;20056;-69
2021/12/15 00:55:22;;;;;;;61.05;30.35;;;9.90;99.90;;;;;;5038141;28;20485;-68
2021/12/15 00:57:47;;;;;;;73.28;32.78;;;9.80;99.90;;;;;;5037449;28;20175;-69
2021/12/15 01:00:24;;;;;;;67.47;30.98;;;9.80;99.90;;;;;;5037908;28;20175;-71
2021/12/15 01:02:51;;;;;;;69.53;30.75;;;9.80;99.90;;;;;;5036894;28;20487;-69
2021/12/15 01:05:19;;;;;;;65.88;29.75;;;9.80;99.90;;;;;;5038422;28;20401;-69
2021/12/15 01:07:46;;;;;;;63.28;30.25;;;9.80;99.90;;;;;;5037610;28;20477;-70
2021/12/15 01:10:18;;;;;;;57.50;28.95;;;9.90;99.90;;;;;;5021713;28;20506;-70
2021/12/15 01:20:59;;;;;;;60.25;29.15;;;9.80;99.90;;;;;;5052132;28;20127;-71
2021/12/15 01:23:28;;;;;;;58.85;29.10;;;9.90;99.90;;;;;;5054237;28;20124;-69
2021/12/15 01:26:06;;;;;;;63.25;28.98;;;9.90;99.90;;;;;;5053678;28;20049;-69
2021/12/15 01:28:32;;;;;;;62.53;29.35;;;9.90;99.90;;;;;;5053757;28;20489;-69
2021/12/15 01:30:59;;;;;;;60.53;28.13;;;9.90;99.90;;;;;;5053677;28;20131;-71
2021/12/15 01:33:26;;;;;;;60.95;29.30;;;9.90;99.90;;;;;;5037554;28;20065;-71
2021/12/15 01:35:53;;;;;;;61.08;29.05;;;9.80;99.90;;;;;;5055403;28;20114;-70
2021/12/15 01:38:21;;;;;;;56.00;27.98;;;9.90;99.90;;;;;;5036981;28;20053;-71
2021/12/15 01:40:47;;;;;;;59.90;27.65;;;9.90;99.90;;;;;;5037212;28;20056;-69
2021/12/15 01:43:24;;;;;;;66.43;29.08;;;9.90;99.90;;;;;;5037790;28;20362;-70
2021/12/15 01:48:39;;;;;;;62.22;27.55;;;9.90;99.90;;;;;;5035522;28;20045;-69
2021/12/15 01:51:10;;;;;;;58.88;27.48;;;9.90;99.90;;;;;;5036738;28;20062;-69
2021/12/15 01:53:36;;;;;;;63.40;27.55;;;9.90;99.90;;;;;;5020552;28;20060;-70
2021/12/15 01:56:04;;;;;;;56.47;25.95;;;9.90;99.90;;;;;;5054633;28;20056;-70
2021/12/15 01:58:31;;;;;;;58.03;26.00;;;9.90;99.90;;;;;;5036930;28;20099;-70
2021/12/15 02:01:00;;;;;;;61.33;27.60;;;9.90;99.90;;;;;;5036163;28;20053;-68
2021/12/15 02:03:26;;;;;;;62.20;27.75;;;9.90;99.90;;;;;;5034359;28;20055;-71
2021/12/15 02:05:52;;;;;;;60.00;26.38;;;9.90;99.90;;;;;;5036698;28;20175;-69
2021/12/15 02:08:18;;;;;;;59.92;27.13;;;9.30;99.90;;;;;;5052836;28;20068;-69
2021/12/15 02:10:44;;;;;;;61.38;27.05;;;9.90;99.90;;;;;;5036082;28;20504;-71
2021/12/15 02:13:13;;;;;;;61.75;28.38;;;9.90;99.90;;;;;;5036314;28;20041;-69
2021/12/15 02:15:42;;;;;;;65.45;27.77;;;9.90;99.90;;;;;;5035588;28;20595;-70
2021/12/15 02:18:11;;;;;;;58.85;27.50;;;9.90;99.90;;;;;;5035836;28;20041;-70
2021/12/15 02:20:40;;;;;;;60.38;27.92;;;9.90;99.90;;;;;;5036607;28;20424;-70
2021/12/15 02:23:08;;;;;;;64.30;27.83;;;10.10;99.90;;;;;;5036244;28;20396;-71
2021/12/15 02:25:34;;;;;;;61.80;27.70;;;9.90;99.90;;;;;;5036484;28;20060;-69
2021/12/15 02:28:02;;;;;;;59.05;25.35;;;9.90;99.90;;;;;;5036086;28;20174;-69
2021/12/15 02:30:46;;;;;;;58.15;26.00;;;9.90;99.90;;;;;;5035304;28;20136;-70
2021/12/15 02:38:38;;;;;;;59.38;25.63;;;9.90;99.90;;;;;;5035773;28;20152;-70
2021/12/15 02:41:09;;;;;;;56.33;26.52;;;9.90;99.90;;;;;;5036051;28;20450;-71
2021/12/15 02:43:36;;;;;;;59.97;26.77;;;9.90;99.90;;;;;;5035041;28;20100;-69
2021/12/15 02:46:03;;;;;;;58.58;27.30;;;9.90;99.90;;;;;;5031684;28;20057;-69
2021/12/15 02:48:29;;;;;;;59.63;27.27;;;9.90;99.90;;;;;;5016666;28;20405;-70
2021/12/15 02:50:54;;;;;;;62.65;27.38;;;9.90;99.90;;;;;;5015610;28;20053;-70
2021/12/15 02:53:20;;;;;;;56.92;25.95;;;9.90;99.90;;;;;;5029390;28;20053;-70
2021/12/15 02:55:46;;;;;;;59.97;26.58;;;10.00;99.90;;;;;;5035406;28;20144;-71
2021/12/15 02:58:11;;;;;;;57.80;25.45;;;9.90;99.90;;;;;;5051871;28;20048;-70
2021/12/15 03:00:53;;;;;;;67.35;27.35;;;9.90;99.90;;;;;;5033990;28;20040;-70
2021/12/15 03:06:29;;;;;;;65.10;27.50;;;9.90;99.90;;;;;;4975509;28;20050;-69
2021/12/15 03:15:19;;;;;;;61.85;27.33;;;9.90;99.90;;;;;;5029665;28;20131;-71
2021/12/15 03:17:03;;;;;;;68.80;30.20;;;9.70;99.90;;;;;;5052733;28;20079;-69
2021/12/15 03:19:29;;;;;;;74.18;30.48;;;9.90;99.90;;;;;;5035526;28;20485;-69
2021/12/15 03:21:55;;;;;;;69.97;29.52;;;9.90;99.90;;;;;;5053344;28;20056;-70
2021/12/15 03:24:24;;;;;;;68.32;28.85;;;10.10;99.90;;;;;;5035401;28;20085;-70
2021/12/15 03:26:59;;;;;;;73.03;30.52;;;9.90;99.90;;;;;;5034858;28;20488;-70
2021/12/15 03:37:26;;;;;;;71.00;30.25;;;9.90;99.90;;;;;;5035640;28;20052;-69
2021/12/15 03:40:17;;;;;;;72.78;30.15;;;9.90;99.90;;;;;;5034810;28;20107;-69
2021/12/15 03:42:54;;;;;;;74.18;32.22;;;10.00;99.90;;;;;;5031292;28;20053;-70
2021/12/15 03:45:28;;;;;;;68.28;30.55;;;9.90;99.90;;;;;;5021828;28;20070;-70
2021/12/15 03:47:57;;;;;;;71.72;32.40;;;9.90;99.90;;;;;;5033941;28;20041;-71
2021/12/15 03:50:24;;;;;;;67.18;31.60;;;9.90;99.90;;;;;;5018899;28;20049;-71
2021/12/15 03:52:50;;;;;;;72.10;32.35;;;9.90;99.90;;;;;;5052765;28;20045;-71
2021/12/15 03:55:18;;;;;;;65.93;31.52;;;9.90;99.90;;;;;;5053018;28;20063;-69
2021/12/15 03:57:44;;;;;;;76.95;32.25;;;9.90;99.90;;;;;;5034496;28;20060;-68
2021/12/15 04:00:12;;;;;;;70.05;32.08;;;9.90;99.90;;;;;;5030822;28;20052;-70
2021/12/15 04:02:38;;;;;;;71.97;33.28;;;9.90;99.90;;;;;;5033701;28;20085;-69
2021/12/15 04:05:06;;;;;;;74.07;33.90;;;9.90;99.90;;;;;;5035002;28;20091;-70
2021/12/15 04:07:32;;;;;;;68.90;32.22;;;9.90;99.90;;;;;;5052152;28;20065;-69
2021/12/15 04:09:58;;;;;;;66.25;32.70;;;9.90;99.90;;;;;;5035516;28;20057;-69
2021/12/15 04:12:23;;;;;;;75.28;34.45;;;9.90;99.90;;;;;;5034156;28;20059;-71
2021/12/15 04:15:07;;;;;;;73.85;34.03;;;9.90;99.90;;;;;;5028134;28;20056;-70
2021/12/15 04:17:34;;;;;;;70.15;34.08;;;9.90;99.90;;;;;;5014284;28;20490;-70
2021/12/15 04:20:06;;;;;;;69.88;33.53;;;9.90;99.90;;;;;;5021356;28;20060;-68
2021/12/15 04:22:32;;;;;;;70.85;35.53;;;9.90;99.90;;;;;;5034388;28;20056;-71
2021/12/15 04:24:58;;;;;;;72.25;34.50;;;9.90;99.90;;;;;;5035297;28;20053;-71
2021/12/15 04:27:26;;;;;;;71.38;33.70;;;9.80;99.90;;;;;;5034100;28;20048;-69
2021/12/15 04:29:53;;;;;;;69.80;34.50;;;9.80;99.90;;;;;;5025699;28;20053;-69
2021/12/15 04:32:43;;;;;;;72.50;34.25;;;9.90;99.90;;;;;;5014784;28;20366;-70
2021/12/15 04:35:10;;;;;;;67.47;33.90;;;9.90;99.90;;;;;;5027738;28;20135;-70
2021/12/15 04:37:36;;;;;;;69.07;33.72;;;9.90;99.90;;;;;;5034049;28;20053;-69
2021/12/15 04:40:04;;;;;;;72.07;35.25;;;9.90;99.90;;;;;;5034445;28;20053;-70
2021/12/15 04:42:31;;;;;;;71.50;34.20;;;9.80;99.90;;;;;;5034515;28;20057;-71
2021/12/15 04:44:56;;;;;;;66.13;34.40;;;9.80;99.90;;;;;;5033386;28;20057;-70
2021/12/15 04:47:23;;;;;;;71.63;34.17;;;9.90;99.90;;;;;;5034390;28;20136;-69
2021/12/15 04:49:52;;;;;;;74.60;37.28;;;9.90;99.90;;;;;;5034821;28;20088;-70
2021/12/15 04:52:22;;;;;;;69.10;34.08;;;9.90;99.90;;;;;;5034098;28;20103;-69
2021/12/15 04:54:49;;;;;;;70.20;35.47;;;9.80;99.90;;;;;;5035019;28;20150;-69
2021/12/15 04:57:17;;;;;;;66.63;33.90;;;9.80;99.90;;;;;;5037534;28;20096;-70
2021/12/15 04:59:43;;;;;;;68.97;33.58;;;9.90;99.90;;;;;;5032735;28;20053;-69
2021/12/15 05:02:10;;;;;;;68.90;36.15;;;9.90;99.90;;;;;;5055203;28;20041;-71
2021/12/15 05:04:36;;;;;;;71.93;35.78;;;9.70;99.90;;;;;;5037517;28;20049;-69
2021/12/15 05:07:02;;;;;;;71.65;34.90;;;9.90;99.90;;;;;;5037954;28;20114;-70
2021/12/15 05:09:28;;;;;;;70.32;36.22;;;9.80;99.90;;;;;;5055715;28;20115;-71
2021/12/15 05:11:54;;;;;;;75.10;36.92;;;9.80;99.90;;;;;;5037681;28;20120;-70
2021/12/15 05:14:22;;;;;;;74.40;37.00;;;9.90;99.90;;;;;;5036770;28;20044;-70
2021/12/15 05:16:50;;;;;;;71.43;35.78;;;9.80;99.90;;;;;;5020827;28;20424;-71
2021/12/15 05:19:15;;;;;;;71.63;35.60;;;9.90;99.90;;;;;;5037543;28;20134;-72
2021/12/15 05:21:41;;;;;;;66.13;34.47;;;9.90;99.90;;;;;;5055444;28;20088;-69
2021/12/15 05:24:30;;;;;;;69.55;33.85;;;9.90;99.90;;;;;;5037484;28;20049;-70
2021/12/15 05:27:09;;;;;;;71.43;35.17;;;9.90;99.90;;;;;;5037460;28;20087;-68
2021/12/15 05:29:35;;;;;;;72.78;35.95;;;9.90;99.90;;;;;;5020370;28;20045;-69
2021/12/15 05:32:02;;;;;;;69.35;35.65;;;9.90;99.90;;;;;;5036523;28;20056;-69
2021/12/15 05:34:28;;;;;;;66.57;35.55;;;9.90;99.90;;;;;;5037071;28;20099;-70
2021/12/15 05:36:54;;;;;;;72.05;37.75;;;9.80;99.90;;;;;;5037030;28;20154;-69
2021/12/15 05:39:21;;;;;;;72.97;36.20;;;9.80;99.90;;;;;;5037632;28;20099;-71
2021/12/15 05:41:49;;;;;;;72.65;37.40;;;9.80;99.90;;;;;;5036868;28;20388;-69
2021/12/15 05:44:15;;;;;;;71.35;36.08;;;9.90;99.90;;;;;;5036709;28;20467;-70
2021/12/15 05:46:41;;;;;;;72.50;37.17;;;9.80;99.90;;;;;;5028699;28;20068;-69
2021/12/15 05:49:07;;;;;;;74.38;37.30;;;9.80;99.90;;;;;;5054234;28;20522;-71
2021/12/15 05:51:34;;;;;;;74.60;35.95;;;9.80;99.90;;;;;;5037419;28;20160;-70
2021/12/15 05:53:59;;;;;;;75.20;38.05;;;9.90;99.90;;;;;;5036853;28;20095;-70
2021/12/15 05:56:26;;;;;;;76.32;37.08;;;9.80;99.90;;;;;;5036448;28;20057;-68
2021/12/15 05:58:51;;;;;;;71.40;37.80;;;9.80;99.90;;;;;;5036957;28;20111;-70
2021/12/15 06:01:17;;;;;;;70.18;36.90;;;9.80;99.90;;;;;;5034379;28;20061;-71
2021/12/15 06:03:44;;;;;;;69.40;36.10;;;9.80;99.90;;;;;;5036157;28;20067;-70
2021/12/15 06:06:09;;;;;;;75.43;37.17;;;9.80;99.90;;;;;;5019941;28;20216;-70
2021/12/15 06:08:36;;;;;;;79.75;37.42;;;9.80;99.90;;;;;;5037307;28;20088;-71
2021/12/15 06:11:02;;;;;;;67.75;35.28;;;9.80;99.90;;;;;;5020146;28;20106;-69
2021/12/15 06:13:29;;;;;;;72.05;37.67;;;9.80;99.90;;;;;;5020706;28;20448;-71
2021/12/15 06:15:57;;;;;;;70.80;36.90;;;9.80;99.90;;;;;;5025560;28;20068;-70
2021/12/15 06:18:23;;;;;;;69.80;36.20;;;9.80;99.90;;;;;;5031786;28;20052;-68
2021/12/15 06:20:51;;;;;;;72.35;36.53;;;9.80;99.90;;;;;;5034916;28;20094;-69
2021/12/15 06:23:19;;;;;;;69.50;35.60;;;9.90;99.90;;;;;;5035300;28;20045;-69
2021/12/15 06:25:53;;;;;;;68.13;36.42;;;9.80;99.90;;;;;;5018726;28;20052;-69
2021/12/15 06:28:20;;;;;;;71.28;35.20;;;9.80;99.90;;;;;;5035411;28;20107;-70
2021/12/15 06:30:45;;;;;;;69.03;36.40;;;9.70;99.90;;;;;;5052477;28;20401;-68
2021/12/15 06:33:12;;;;;;;69.63;36.50;;;9.80;99.90;;;;;;5036081;28;20049;-70
2021/12/15 06:35:38;;;;;;;71.25;36.60;;;9.80;99.90;;;;;;5033488;28;20049;-68
2021/12/15 06:38:05;;;;;;;70.90;37.25;;;9.80;99.90;;;;;;5044149;28;20056;-69
2021/12/15 06:40:31;;;;;;;68.05;36.72;;;9.80;99.90;;;;;;5074038;28;20052;-69
2021/12/15 06:42:57;;;;;;;69.00;36.38;;;9.80;99.90;;;;;;5042477;28;20061;-68
2021/12/15 06:45:29;;;;;;;68.07;35.53;;;9.80;99.90;;;;;;5036514;28;20517;-68
2021/12/15 06:58:51;;;;;;;65.78;33.15;;;9.80;99.90;;;;;;5034736;28;20076;-69
2021/12/15 07:01:18;;;;;;;69.53;36.00;;;9.70;99.90;;;;;;5034798;28;20073;-70
2021/12/15 07:03:44;;;;;;;68.68;36.22;;;9.80;99.90;;;;;;5035616;28;20052;-69
2021/12/15 07:06:10;;;;;;;69.63;35.15;;;9.80;99.90;;;;;;5052445;28;20083;-69
2021/12/15 07:08:36;;;;;;;72.07;35.45;;;9.80;99.90;;;;;;5049020;28;20059;-69
2021/12/15 07:11:03;;;;;;;67.30;35.03;;;9.90;99.90;;;;;;5035250;28;20048;-68
2021/12/15 07:13:30;;;;;;;68.75;33.60;;;9.80;99.90;;;;;;5053088;28;20053;-69
2021/12/15 07:16:00;;;;;;;68.78;34.83;;;9.80;99.90;;;;;;5054777;28;20048;-69
2021/12/15 07:19:31;;;;;;;62.35;33.63;;;10.20;99.90;;;;;;5041862;28;20041;-69
2021/12/15 07:21:33;;;;;;;64.22;32.30;;;9.80;99.90;;;;;;5026876;28;20064;-70
2021/12/15 07:23:59;;;;;;;61.55;35.47;;;9.90;99.90;;;;;;5033805;28;20608;-69
2021/12/15 07:26:24;;;;;;;64.97;33.63;;;9.80;99.90;;;;;;5052532;28;20162;-69
2021/12/15 07:28:50;;;;;;;64.72;33.55;;;9.90;99.90;;;;;;5034723;28;20166;-68
2021/12/15 07:31:16;;;;;;;60.88;32.33;;;9.80;99.90;;;;;;5034773;28;20479;-69
2021/12/15 07:33:41;;;;;;;62.50;32.97;;;9.80;99.90;;;;;;5035352;28;20049;-69
2021/12/15 07:36:07;;;;;;;56.88;31.05;;;9.80;99.90;;;;;;5034552;28;20060;-69
2021/12/15 07:38:41;;;;;;;57.92;31.65;;;9.80;99.90;;;;;;5034901;28;20053;-69
2021/12/15 07:41:20;;;;;;;64.32;32.42;;;9.90;99.90;;;;;;5035553;28;20075;-68
2021/12/15 07:43:46;;;;;;;56.65;31.17;;;9.90;99.90;;;;;;5051671;28;20045;-69
2021/12/15 07:46:12;;;;;;;56.17;30.35;;;9.90;99.90;;;;;;5017523;28;20191;-69
2021/12/15 07:48:39;;;;;;;56.80;29.17;;;9.90;99.90;;;;;;5034629;28;20444;-70
2021/12/15 07:51:08;;;;;;;57.10;30.42;;;9.80;99.90;;;;;;5035041;28;20456;-70
2021/12/15 07:53:36;;;;;;;60.13;31.23;;;9.90;99.90;;;;;;5034434;28;20037;-69
2021/12/15 07:56:02;;;;;;;62.30;32.83;;;9.80;99.90;;;;;;5033707;28;20041;-70
2021/12/15 07:58:29;;;;;;;59.20;28.90;;;9.80;99.90;;;;;;5034301;28;20056;-70
2021/12/15 08:00:56;;;;;;;60.22;31.38;;;9.80;99.90;;;;;;5051687;28;20424;-70
2021/12/15 08:03:21;;;;;;;61.97;31.77;;;9.80;99.90;;;;;;5051689;28;20084;-70
2021/12/15 08:05:50;;;;;;;57.97;29.58;;;9.80;99.90;;;;;;5032223;28;20491;-69
2021/12/15 08:08:16;;;;;;;55.75;30.13;;;9.80;99.90;;;;;;5034365;28;20386;-70
2021/12/15 08:10:42;;;;;;;60.90;30.80;;;9.70;99.90;;;;;;5038217;28;20113;-69
2021/12/15 08:13:09;;;;;;;59.78;30.70;;;9.80;99.90;;;;;;5023049;28;20060;-68
2021/12/15 08:15:34;;;;;;;58.78;31.63;;;9.80;99.90;;;;;;5033553;28;20140;-70
2021/12/15 08:18:01;;;;;;;60.20;29.90;;;9.80;99.90;;;;;;5033961;28;20064;-68
2021/12/15 08:20:29;;;;;;;56.05;29.52;;;9.90;99.90;;;;;;5052550;28;20049;-68
2021/12/15 08:22:55;;;;;;;59.47;28.90;;;9.90;99.90;;;;;;5052291;28;20077;-71
2021/12/15 08:25:22;;;;;;;54.58;29.75;;;9.80;99.90;;;;;;5030906;28;20115;-70
2021/12/15 08:27:50;;;;;;;57.88;29.85;;;9.80;99.90;;;;;;5034292;28;20056;-70
2021/12/15 08:30:20;;;;;;;54.13;29.13;;;9.90;99.90;;;;;;5037275;28;20374;-70
2021/12/15 08:32:52;;;;;;;59.45;29.75;;;9.80;99.90;;;;;;5038054;28;20505;-70
2021/12/15 08:35:20;;;;;;;53.28;29.20;;;9.50;99.90;;;;;;5038248;28;20070;-71
2021/12/15 08:37:46;;;;;;;56.97;30.05;;;9.90;99.90;;;;;;5021712;28;20136;-70
2021/12/15 08:40:13;;;;;;;57.92;28.63;;;9.90;99.90;;;;;;5038650;28;20147;-71
2021/12/15 08:42:39;;;;;;;50.50;27.30;;;9.90;99.90;;;;;;5038314;28;20044;-71
2021/12/15 08:45:06;;;;;;;53.75;29.15;;;9.80;99.90;;;;;;5021770;28;20480;-70
2021/12/15 08:47:31;;;;;;;52.20;28.42;;;9.90;99.90;;;;;;5036346;28;20041;-71
2021/12/15 08:49:57;;;;;;;49.53;27.60;;;9.90;99.90;;;;;;5054868;28;20102;-72
2021/12/15 08:52:23;;;;;;;53.35;28.08;;;9.80;99.90;;;;;;5052294;28;20055;-71
2021/12/15 08:54:48;;;;;;;52.67;28.50;;;9.80;99.90;;;;;;5031001;28;20554;-69
2021/12/15 08:57:14;;;;;;;55.85;28.92;;;9.90;99.90;;;;;;5022511;28;20052;-71
2021/12/15 08:59:40;;;;;;;54.10;28.67;;;10.00;99.90;;;;;;5031456;28;20057;-70
2021/12/15 09:02:06;;;;;;;57.80;28.95;;;9.90;99.90;;;;;;5026555;28;20060;-70
2021/12/15 09:04:32;;;;;;;50.80;27.50;;;10.00;99.90;;;;;;5036211;28;20420;-71
2021/12/15 09:06:58;;;;;;;54.45;27.60;;;10.00;99.90;;;;;;5053383;28;20044;-70
2021/12/15 09:09:25;;;;;;;48.47;26.55;;;10.00;99.90;;;;;;5034273;28;20086;-70
2021/12/15 09:11:52;;;;;;;48.63;26.85;;;9.40;99.90;;;;;;5018650;28;20366;-70
2021/12/15 09:14:18;;;;;;;49.75;28.58;;;10.00;99.90;;;;;;5030819;28;20068;-71
2021/12/15 09:16:47;;;;;;;46.60;26.95;;;10.10;99.90;;;;;;5024690;28;20071;-70
2021/12/15 09:19:13;;;;;;;47.08;26.98;;;10.10;99.90;;;;;;5043217;28;20545;-71
2021/12/15 09:21:39;;;;;;;49.90;26.30;;;10.00;99.90;;;;;;5057392;28;20134;-70
2021/12/15 09:24:06;;;;;;;49.35;26.33;;;10.10;99.90;;;;;;5057074;28;20140;-71
2021/12/15 09:26:33;;;;;;;44.30;26.13;;;10.10;99.90;;;;;;5057180;28;20052;-70
2021/12/15 09:29:00;;;;;;;49.45;26.70;;;10.10;99.90;;;;;;5057116;28;20102;-71
2021/12/15 09:31:26;;;;;;;48.58;26.85;;;10.20;99.90;;;;;;5056863;28;20120;-70
2021/12/15 09:33:53;;;;;;;50.75;27.25;;;10.10;99.90;;;;;;5045905;28;20072;-70
2021/12/15 09:36:21;;;;;;;42.83;26.02;;;10.10;99.90;;;;;;5037416;28;20148;-71
2021/12/15 09:38:50;;;;;;;48.35;25.27;;;10.20;99.90;;;;;;5033345;28;20115;-71
2021/12/15 09:41:19;;;;;;;49.92;26.20;;;10.20;99.90;;;;;;5016634;28;20046;-70
2021/12/15 09:43:47;;;;;;;48.75;26.38;;;10.20;99.90;;;;;;5034725;28;20053;-70
2021/12/15 09:46:28;;;;;;;45.63;25.75;;;10.30;99.90;;;;;;5017268;28;20410;-69
2021/12/15 09:57:35;;;;;;;43.13;24.95;;;10.30;99.90;;;;;;5017010;28;20046;-70
2021/12/15 10:02:53;;;;;;;45.63;25.92;;;10.30;99.90;;;;;;5018871;28;20466;-69
2021/12/15 10:19:18;;;;;;;38.10;21.95;;;10.40;99.90;;;;;;5033118;28;20050;-69
2021/12/15 10:22:14;;;;;;;36.95;22.45;;;10.40;99.90;;;;;;5034045;28;20061;-70
2021/12/15 10:24:46;;;;;;;35.40;21.85;;;10.40;99.90;;;;;;5016941;28;20123;-71
2021/12/15 10:27:14;;;;;;;;;;;10.40;99.90;;;;;;5016459;28;20049;-70
2021/12/15 10:30:01;;;;;;;36.25;20.25;;;10.40;99.90;;;;;;5034504;28;19921;-70
2021/12/15 10:32:32;;;;;;;37.55;21.83;;;10.30;99.90;;;;;;4999511;28;20060;-69
2021/12/15 10:35:06;;;;;;;40.47;22.67;;;10.40;99.90;;;;;;5046495;28;20121;-71
2021/12/15 10:37:32;;;;;;;39.75;21.85;;;10.40;99.90;;;;;;5048264;28;20063;-71
2021/12/15 10:40:17;;;;;;;36.10;23.10;;;10.40;99.90;;;;;;5033918;28;20556;-71
2021/12/15 10:42:43;;;;;;;35.70;22.10;;;10.50;99.90;;;;;;5010222;28;20049;-71
2021/12/15 10:45:12;;;;;;;39.03;22.58;;;10.50;99.90;;;;;;5033958;28;20049;-70
2021/12/15 10:47:44;;;;;;;36.33;22.48;;;10.50;99.90;;;;;;5051897;28;20055;-70
2021/12/15 10:50:15;;;;;;;;;;;10.50;99.90;;;;;;5054198;28;20061;-70
2021/12/15 10:52:58;;;;;;;34.03;20.35;;;10.60;99.90;;;;;;5052471;28;19921;-70
2021/12/15 10:55:33;;;;;;;34.97;20.70;;;10.10;99.90;;;;;;5038063;28;20123;-70
2021/12/15 10:58:00;;;;;;;36.28;21.13;;;10.60;99.90;;;;;;5044005;28;20052;-71
2021/12/15 11:00:33;;;;;;;35.75;20.85;;;10.60;99.90;;;;;;5056001;28;20059;-70
2021/12/15 11:03:23;;;;;;;37.03;21.33;;;10.60;99.90;;;;;;5052453;28;20056;-71
2021/12/15 11:05:49;;;;;;;35.97;21.38;;;10.60;99.90;;;;;;5015474;28;20128;-71
2021/12/15 11:08:20;;;;;;;34.95;20.95;;;10.60;99.90;;;;;;5021067;28;20045;-70
2021/12/15 11:10:45;;;;;;;33.40;19.05;;;10.70;99.90;;;;;;5043980;28;20048;-71
2021/12/15 11:13:13;;;;;;;33.80;19.35;;;10.70;99.90;;;;;;5040737;28;20386;-69
2021/12/15 11:15:51;;;;;;;29.70;18.55;;;10.70;99.90;;;;;;5031357;28;20056;-71
2021/12/15 11:18:19;;;;;;;30.95;18.63;;;10.70;99.90;;;;;;5035216;28;20378;-70
2021/12/15 11:20:52;;;;;;;25.60;16.23;;;10.70;99.90;;;;;;5035047;28;20044;-71
2021/12/15 11:23:26;;;;;;;29.65;16.25;;;10.70;99.90;;;;;;5017946;28;20041;-70
2021/12/15 11:26:04;;;;;;;29.38;17.35;;;10.80;99.90;;;;;;5034781;28;20057;-71
2021/12/15 11:28:49;;;;;;;30.00;17.08;;;10.80;99.90;;;;;;5035163;28;20052;-71
2021/12/15 11:31:26;;;;;;;27.50;17.10;;;10.80;99.90;;;;;;5052146;28;20079;-69
2021/12/15 11:34:05;;;;;;;29.20;16.80;;;10.80;99.90;;;;;;5035192;28;20060;-70
2021/12/15 11:36:43;;;;;;;28.45;16.27;;;10.80;99.90;;;;;;5035293;28;20071;-71
2021/12/15 11:39:16;;;;;;;32.85;18.45;;;10.80;99.90;;;;;;5014606;28;20481;-71
2021/12/15 11:41:49;;;;;;;;;;;10.80;99.90;;;;;;5032150;28;20038;-72
2021/12/15 11:44:21;;;;;;;28.75;15.70;;;10.80;99.90;;;;;;5030854;28;19972;-70
2021/12/15 11:46:51;;;;;;;26.17;15.23;;;10.80;99.90;;;;;;5032770;28;20064;-71
2021/12/15 11:49:27;;;;;;;25.35;15.90;;;10.80;99.90;;;;;;5012067;28;20545;-69
2021/12/15 11:52:03;;;;;;;32.15;17.25;;;10.80;99.90;;;;;;5008458;28;20042;-69
2021/12/15 11:54:46;;;;;;;30.35;16.65;;;10.80;99.90;;;;;;5012082;28;20062;-72
2021/12/15 11:57:24;;;;;;;27.60;17.52;;;10.80;99.90;;;;;;5007833;28;20099;-71
2021/12/15 12:00:06;;;;;;;29.30;17.17;;;10.80;99.90;;;;;;5015273;28;20517;-73
2021/12/15 12:02:38;;;;;;;27.05;15.73;;;10.70;99.90;;;;;;5015032;28;20107;-70
2021/12/15 12:05:24;;;;;;;30.08;16.13;;;10.70;99.90;;;;;;5017066;28;20481;-71
2021/12/15 12:08:11;;;;;;;30.38;17.05;;;10.70;99.90;;;;;;5019125;28;20053;-72
2021/12/15 12:10:46;;;;;;;28.70;16.65;;;10.80;99.90;;;;;;5002880;28;20095;-70
2021/12/15 12:13:21;;;;;;;26.35;17.10;;;10.80;99.90;;;;;;5015515;28;20045;-71
2021/12/15 12:15:49;;;;;;;29.23;16.70;;;10.80;99.90;;;;;;5018550;28;20088;-70
2021/12/15 12:18:18;;;;;;;28.17;16.17;;;10.80;99.90;;;;;;5017062;28;20132;-70
2021/12/15 12:20:48;;;;;;;26.13;15.85;;;10.80;99.90;;;;;;5017657;28;20116;-70
2021/12/15 12:23:17;;;;;;;27.88;16.13;;;10.80;99.90;;;;;;5018691;28;20469;-72
2021/12/15 12:25:49;;;;;;;28.58;15.30;;;10.80;99.90;;;;;;5018521;28;20111;-71
2021/12/15 12:28:19;;;;;;;27.52;15.77;;;10.90;99.90;;;;;;5036776;28;20084;-71
2021/12/15 12:30:51;;;;;;;25.02;15.15;;;10.80;99.90;;;;;;5017824;28;20054;-71
2021/12/15 12:33:20;;;;;;;24.65;14.40;;;10.80;99.90;;;;;;5018894;28;20367;-70
2021/12/15 12:35:50;;;;;;;26.88;16.40;;;10.80;99.90;;;;;;5018095;28;20053;-70
2021/12/15 12:38:27;;;;;;;25.52;14.52;;;10.90;99.90;;;;;;5018913;28;20076;-69
2021/12/15 12:40:52;;;;;;;23.65;14.25;;;10.90;99.90;;;;;;5018283;28;20064;-71
2021/12/15 12:43:29;;;;;;;25.65;14.98;;;10.90;99.90;;;;;;5018863;28;20049;-71
2021/12/15 12:45:57;;;;;;;26.02;13.82;;;10.90;99.90;;;;;;5035746;28;20061;-70
2021/12/15 12:59:32;;;;;;;22.17;12.32;;;10.90;99.90;;;;;;5035745;28;20304;-70
2021/12/15 13:02:00;;;;;;;16.35;10.48;;;10.90;99.90;;;;;;5016305;28;20050;-69
2021/12/15 13:04:41;;;;;;;15.88;10.85;;;10.90;99.90;;;;;;5000122;28;20054;-70
2021/12/15 13:07:07;;;;;;;15.98;10.00;;;10.90;99.90;;;;;;4998442;28;20058;-70
2021/12/15 13:09:50;;;;;;;15.48;9.80;;;10.90;99.90;;;;;;5016363;28;20050;-70
2021/12/15 13:12:25;;;;;;;17.13;10.15;;;10.90;99.90;;;;;;4998567;28;20065;-71
2021/12/15 13:14:52;;;;;;;17.05;9.63;;;10.90;99.90;;;;;;5013711;28;20124;-70
2021/12/15 13:17:26;;;;;;;13.75;8.95;;;10.90;99.90;;;;;;5025054;28;20471;-70
2021/12/15 13:19:53;;;;;;;13.25;8.48;;;11.00;99.90;;;;;;5037352;28;20095;-68
2021/12/15 13:22:39;;;;;;;13.25;8.00;;;10.90;99.90;;;;;;5037456;28;20515;-70
2021/12/15 13:31:03;;;;;;;14.48;7.80;;;10.80;99.90;;;;;;5021626;28;20045;-69
2021/12/15 13:33:34;;;;;;;13.63;7.45;;;10.80;99.90;;;;;;5011981;28;20054;-69
2021/12/15 13:36:09;;;;;;;9.38;6.35;;;10.70;99.90;;;;;;5021252;28;20057;-72
2021/12/15 13:38:49;;;;;;;10.55;5.85;;;10.70;99.90;;;;;;5016974;28;20497;-69
2021/12/15 13:41:38;;;;;;;9.95;5.10;;;10.60;99.90;;;;;;5055103;28;20061;-69
2021/12/15 13:44:35;;;;;;;14.45;5.95;;;10.60;99.90;;;;;;5037546;28;20049;-69
2021/12/15 13:47:19;;;;;;;13.43;5.90;;;10.60;99.90;;;;;;5036518;28;20466;-69
2021/12/15 13:50:00;;;;;;;13.10;5.47;;;10.60;99.90;;;;;;5037282;28;20530;-71
2021/12/15 13:52:32;;;;;;;11.50;5.35;;;10.60;99.90;;;;;;5036600;28;20053;-68
2021/12/15 13:55:24;;;;;;;9.38;4.68;;;10.60;99.90;;;;;;5054744;28;20057;-69
2021/12/15 13:58:10;;;;;;;5.63;4.38;;;10.60;99.90;;;;;;5036966;28;20072;-69
2021/12/15 14:00:55;;;;;;;9.18;4.78;;;10.50;99.90;;;;;;5054317;28;20052;-69
2021/12/15 14:03:43;;;;;;;13.23;4.57;;;10.60;99.90;;;;;;5036781;28;20052;-70
2021/12/15 14:06:16;;;;;;;10.70;4.10;;;10.50;99.90;;;;;;5036079;28;20045;-69
2021/12/15 14:08:53;;;;;;;8.80;4.40;;;10.50;99.90;;;;;;5036965;28;20132;-70
2021/12/15 14:11:28;;;;;;;10.23;4.45;;;10.50;99.90;;;;;;5036768;28;20049;-69
2021/12/15 14:13:58;;;;;;;7.35;4.25;;;10.50;99.90;;;;;;5036918;28;20488;-69
2021/12/15 14:16:34;;;;;;;8.43;3.65;;;10.40;99.90;;;;;;5035830;28;20070;-70